createdAt,value
2023-03-25T00:01:16.427Z,99747.00
2023-03-25T00:06:18.596Z,99744.34
2023-03-25T00:11:20.894Z,99755.19
2023-03-25T00:16:22.924Z,99771.06
2023-03-25T00:21:25.029Z,99762.09
2023-03-25T00:26:30.389Z,99765.75
2023-03-25T00:31:32.590Z,99771.06
2023-03-25T00:36:38.000Z,99773.72
2023-03-25T00:41:42.234Z,99763.91
2023-03-25T00:46:44.157Z,99764.03
2023-03-25T00:51:52.886Z,99769.25
2023-03-25T00:56:56.545Z,99766.50
2023-03-25T01:01:59.092Z,99757.75
2023-03-25T01:07:01.916Z,99766.59
2023-03-25T01:12:04.115Z,99771.06
2023-03-25T01:17:06.275Z,99773.06
2023-03-25T01:22:08.180Z,99766.69
2023-03-25T01:27:10.220Z,99763.91
2023-03-25T01:32:12.305Z,99761.34
2023-03-25T01:37:14.392Z,99747.31
2023-03-25T01:42:16.614Z,99748.91
2023-03-25T01:47:18.817Z,99739.34
2023-03-25T01:52:26.634Z,99740.84
2023-03-25T01:57:31.437Z,99732.34
2023-03-25T02:02:36.995Z,99743.72
2023-03-25T02:07:43.207Z,99740.19
2023-03-25T02:12:47.425Z,99733.19
2023-03-25T02:18:01.879Z,99737.66
2023-03-25T02:23:22.534Z,99739.44
2023-03-25T02:28:36.162Z,99733.28
2023-03-25T02:34:01.877Z,99732.22
2023-03-25T02:39:09.160Z,99740.41
2023-03-25T02:45:07.633Z,99741.34
2023-03-25T02:50:21.104Z,99741.16
2023-03-25T02:55:25.857Z,99745.63
2023-03-25T03:00:30.169Z,99735.00
2023-03-25T03:05:39.881Z,99726.28
2023-03-25T03:11:04.132Z,99724.75
2023-03-25T03:16:14.495Z,99720.00
2023-03-25T03:21:23.746Z,99725.31
2023-03-25T03:26:45.506Z,99727.22
2023-03-25T03:32:07.473Z,99730.63
2023-03-25T03:37:18.888Z,99720.84
2023-03-25T03:42:27.560Z,99722.75
2023-03-25T03:47:34.562Z,99724.47
2023-03-25T03:52:48.436Z,99729.69
2023-03-25T03:58:02.281Z,99736.03
2023-03-25T04:03:18.549Z,99738.59
2023-03-25T04:08:34.665Z,99734.44
2023-03-25T04:13:40.691Z,99737.84
2023-03-25T04:18:43.845Z,99730.72
2023-03-25T04:23:46.591Z,99743.81
2023-03-25T04:28:48.572Z,99733.38
2023-03-25T04:33:51.026Z,99743.16
2023-03-25T04:38:53.523Z,99738.59
2023-03-25T04:43:55.641Z,99724.56
2023-03-25T04:48:58.295Z,99731.69
2023-03-25T04:54:01.341Z,99723.63
2023-03-25T04:59:04.659Z,99729.69
2023-03-25T05:04:07.088Z,99729.78
2023-03-25T05:09:14.803Z,99744.88
2023-03-25T05:14:19.460Z,99738.03
2023-03-25T05:19:22.090Z,99738.81
2023-03-25T05:24:23.956Z,99738.03
2023-03-25T05:29:26.145Z,99736.91
2023-03-25T05:34:30.399Z,99748.38
2023-03-25T05:39:32.499Z,99749.22
2023-03-25T05:44:34.404Z,99741.56
2023-03-25T05:49:36.525Z,99755.69
2023-03-25T05:54:41.942Z,99762.06
2023-03-25T05:59:43.845Z,99768.16
2023-03-25T06:04:50.766Z,99782.19
2023-03-25T06:09:54.450Z,99784.16
2023-03-25T06:14:56.567Z,99781.44
2023-03-25T06:20:00.950Z,99775.34
2023-03-25T06:25:04.043Z,99779.53
2023-03-25T06:30:08.359Z,99781.63
2023-03-25T06:35:12.026Z,99792.91
2023-03-25T06:40:14.869Z,99784.16
2023-03-25T06:45:16.783Z,99784.75
2023-03-25T06:50:18.716Z,99807.13
2023-03-25T06:55:20.601Z,99797.84
2023-03-25T07:00:24.476Z,99806.38
2023-03-25T07:05:26.758Z,99801.81
2023-03-25T07:10:28.734Z,99801.06
2023-03-25T07:15:31.014Z,99783.31
2023-03-25T07:20:33.086Z,99798.50
2023-03-25T07:25:35.061Z,99803.91
2023-03-25T07:30:37.058Z,99787.59
2023-03-25T07:35:39.223Z,99826.88
2023-03-25T07:40:41.420Z,99823.84
2023-03-25T07:45:43.979Z,99821.34
2023-03-25T07:50:58.283Z,99828.56
2023-03-25T07:56:00.247Z,99826.66
2023-03-25T08:01:02.315Z,99852.50
2023-03-25T08:06:04.767Z,99846.41
2023-03-25T08:11:06.956Z,99849.00
2023-03-25T08:16:15.754Z,99854.53
2023-03-25T08:21:17.836Z,99849.84
2023-03-25T08:26:19.828Z,99857.94
2023-03-25T08:31:22.213Z,99867.09
2023-03-25T08:36:24.530Z,99861.63
2023-03-25T08:41:26.388Z,99874.69
2023-03-25T08:46:28.467Z,99871.56
2023-03-25T08:51:30.738Z,99867.09
2023-03-25T08:56:32.876Z,99862.47
2023-03-25T09:01:35.063Z,99869.38
2023-03-25T09:06:47.156Z,99870.44
2023-03-25T09:11:50.766Z,99869.28
2023-03-25T09:16:52.675Z,99877.78
2023-03-25T09:21:54.823Z,99880.16
2023-03-25T09:26:56.915Z,99883.47
2023-03-25T09:32:00.200Z,99891.22
2023-03-25T09:37:03.757Z,99891.13
2023-03-25T09:42:23.788Z,99885.16
2023-03-25T09:47:27.231Z,99897.13
2023-03-25T09:52:47.282Z,99890.28
2023-03-25T09:57:55.526Z,99900.25
2023-03-25T10:03:00.328Z,99898.44
2023-03-25T10:08:26.855Z,99889.28
2023-03-25T10:13:57.713Z,99902.00
2023-03-25T10:19:39.956Z,99906.16
2023-03-25T10:24:57.150Z,99904.06
2023-03-25T10:30:18.512Z,99910.53
2023-03-25T10:35:25.347Z,99933.88
2023-03-25T10:41:12.332Z,99936.91
2023-03-25T10:46:19.172Z,99928.47
2023-03-25T10:51:27.029Z,99935.19
2023-03-25T10:56:33.123Z,99938.63
2023-03-25T11:01:41.473Z,99929.22
2023-03-25T11:06:57.906Z,99934.44
2023-03-25T11:12:06.723Z,99931.88
2023-03-25T11:17:17.031Z,99948.66
2023-03-25T11:22:25.305Z,99941.75
2023-03-25T11:27:29.670Z,99942.69
2023-03-25T11:32:39.806Z,99941.00
2023-03-25T11:37:48.185Z,99912.53
2023-03-25T11:42:56.085Z,99913.47
2023-03-25T11:48:19.529Z,99905.34
2023-03-25T11:53:22.897Z,99891.09
2023-03-25T11:58:32.276Z,99892.59
2023-03-25T12:03:36.105Z,99879.69
2023-03-25T12:08:57.402Z,99903.59
2023-03-25T12:14:38.255Z,99888.63
2023-03-25T12:20:13.036Z,99888.44
2023-03-25T12:25:21.041Z,99873.25
2023-03-25T12:30:35.195Z,99863.59
2023-03-25T12:36:07.298Z,99877.63
2023-03-25T12:41:15.122Z,99919.38
2023-03-25T12:46:26.070Z,99903.53
2023-03-25T12:51:28.288Z,99932.56
2023-03-25T12:56:35.853Z,99954.56
2023-03-25T13:02:05.195Z,99964.50
2023-03-25T13:07:38.239Z,99948.94
2023-03-25T13:12:43.223Z,99953.97
2023-03-25T13:18:07.661Z,99934.25
2023-03-25T13:23:17.852Z,99934.34
2023-03-25T13:28:30.010Z,99938.81
2023-03-25T13:33:38.352Z,99928.56
2023-03-25T13:39:21.355Z,99911.66
2023-03-25T13:44:41.964Z,99908.25
2023-03-25T13:49:51.406Z,99893.72
2023-03-25T13:55:06.774Z,99902.75
2023-03-25T14:00:27.645Z,99912.16
2023-03-25T14:06:00.985Z,99910.44
2023-03-25T14:11:25.088Z,99918.31
2023-03-25T14:16:31.302Z,99929.78
2023-03-25T14:21:39.714Z,99929.41
2023-03-25T14:26:54.824Z,99932.66
2023-03-25T14:32:03.533Z,99918.41
2023-03-25T14:37:05.904Z,99927.13
2023-03-25T14:42:07.832Z,99911.84
2023-03-25T14:47:16.315Z,99927.59
2023-03-25T14:52:22.865Z,99929.03
2023-03-25T14:57:29.047Z,99931.75
2023-03-25T15:02:33.661Z,99929.50
2023-03-25T15:07:44.620Z,99936.31
2023-03-25T15:12:52.866Z,99954.66
2023-03-25T15:17:55.047Z,99938.72
2023-03-25T15:23:20.187Z,99922.78
2023-03-25T15:28:50.141Z,99922.88
2023-03-25T15:34:16.061Z,99928.19
2023-03-25T15:39:45.315Z,99918.31
2023-03-25T15:45:09.180Z,99921.91
2023-03-25T15:50:55.461Z,99929.88
2023-03-25T15:56:12.556Z,99910.50
2023-03-25T16:01:35.722Z,99942.31
2023-03-25T16:06:44.207Z,99979.28
2023-03-25T16:11:46.669Z,99968.78
2023-03-25T16:16:57.477Z,99966.13
2023-03-25T16:22:02.949Z,99970.69
2023-03-25T16:27:12.644Z,99976.63
2023-03-25T16:32:24.078Z,99972.56
2023-03-25T16:37:26.355Z,99974.94
2023-03-25T16:42:34.804Z,100000.66
2023-03-25T16:47:37.817Z,99988.31
2023-03-25T16:52:39.870Z,99994.50
2023-03-25T16:57:41.906Z,99993.75
2023-03-25T17:02:44.694Z,100006.81
2023-03-25T17:07:49.112Z,100009.56
2023-03-25T17:13:03.349Z,100016.59
2023-03-25T17:18:13.393Z,100024.66
2023-03-25T17:23:18.419Z,100023.59
2023-03-25T17:28:34.215Z,100016.69
2023-03-25T17:33:40.034Z,100048.38
2023-03-25T17:38:45.558Z,100048.50
2023-03-25T17:43:57.436Z,100043.19
2023-03-25T17:49:00.150Z,100044.97
2023-03-25T17:54:02.320Z,100045.91
2023-03-25T17:59:14.538Z,100063.59
2023-03-25T18:04:21.459Z,100095.19
2023-03-25T18:09:24.894Z,100100.00
2023-03-25T18:14:27.376Z,100104.28
2023-03-25T18:19:32.304Z,100101.63
2023-03-25T18:24:34.463Z,100118.50
2023-03-25T18:29:37.783Z,100133.50
2023-03-25T18:34:39.868Z,100132.75
2023-03-25T18:39:41.893Z,100121.91
2023-03-25T18:44:44.012Z,100127.44
2023-03-25T18:49:46.186Z,100131.78
2023-03-25T18:54:48.189Z,100134.56
2023-03-25T18:59:50.445Z,100134.56
2023-03-25T19:05:00.589Z,100142.53
2023-03-25T19:10:03.338Z,100143.44
2023-03-25T19:15:05.688Z,100138.13
2023-03-25T19:20:09.599Z,100147.06
2023-03-25T19:25:12.079Z,100151.34
2023-03-25T19:30:17.490Z,100153.16
2023-03-25T19:35:21.231Z,100141.75
2023-03-25T19:40:28.715Z,100148.84
2023-03-25T19:45:31.682Z,100144.13
2023-03-25T19:50:35.609Z,100161.38
2023-03-25T19:55:37.480Z,100155.88
2023-03-25T20:00:40.017Z,100149.59
2023-03-25T20:05:42.319Z,100138.22
2023-03-25T20:10:44.508Z,100130.25
2023-03-25T20:15:46.681Z,100121.34
2023-03-25T20:20:48.613Z,100128.44
2023-03-25T20:25:52.726Z,100128.56
2023-03-25T20:30:56.049Z,100137.16
2023-03-25T20:35:58.319Z,100135.78
2023-03-25T20:41:00.505Z,100144.84
2023-03-25T20:46:03.000Z,100136.44
2023-03-25T20:51:07.459Z,100148.75
2023-03-25T20:56:10.210Z,100139.25
2023-03-25T21:01:12.401Z,100155.97
2023-03-25T21:06:24.338Z,100157.69
2023-03-25T21:11:27.562Z,100161.13
2023-03-25T21:16:29.687Z,100175.16
2023-03-25T21:21:32.656Z,100177.63
2023-03-25T21:26:35.037Z,100166.81
2023-03-25T21:31:37.217Z,100180.38
2023-03-25T21:36:39.078Z,100180.38
2023-03-25T21:41:41.017Z,100178.66
2023-03-25T21:46:43.040Z,100183.88
2023-03-25T21:51:50.644Z,100194.72
2023-03-25T21:56:55.013Z,100188.88
2023-03-25T22:01:56.944Z,100180.56
2023-03-25T22:06:58.894Z,100197.53
2023-03-25T22:12:00.883Z,100192.22
2023-03-25T22:17:02.974Z,100200.28
2023-03-25T22:22:04.961Z,100188.69
2023-03-25T22:27:06.953Z,100199.25
2023-03-25T22:32:08.779Z,100193.75
2023-03-25T22:37:10.646Z,100188.81
2023-03-25T22:42:12.735Z,100200.38
2023-03-25T22:47:14.925Z,100204.56
2023-03-25T22:52:17.001Z,100205.81
2023-03-25T22:57:19.014Z,100208.75
2023-03-25T23:02:21.097Z,100200.19
2023-03-25T23:07:23.069Z,100194.13
2023-03-25T23:12:26.389Z,100200.28
2023-03-25T23:17:28.301Z,100197.53
2023-03-25T23:22:30.176Z,100196.09
2023-03-25T23:27:34.160Z,100194.00
2023-03-25T23:32:36.244Z,100193.50
2023-03-25T23:37:38.107Z,100192.16
2023-03-25T23:42:39.989Z,100185.91
2023-03-25T23:47:41.984Z,100183.50
2023-03-25T23:52:44.118Z,100178.13
2023-03-25T23:57:46.059Z,100169.97
